sensor_id;sensor_type;location;lat;lon;timestamp;pressure;altitude;pressure_sealevel;temperature;humidity
7940;BME280;4015;48.888;9.226;2022-12-18T00:02:03;153350.94;;;-7.69;87.14
7940;BME280;4015;48.888;9.226;2022-12-18T00:04:29;153361.03;;;-7.65;86.40
7940;BME280;4015;48.888;9.226;2022-12-18T00:06:55;153369.84;;;-7.61;86.09
7940;BME280;4015;48.888;9.226;2022-12-18T00:09:20;153369.84;;;-7.61;85.43
7940;BME280;4015;48.888;9.226;2022-12-18T00:11:46;153368.59;;;-7.62;85.53
7940;BME280;4015;48.888;9.226;2022-12-18T00:14:12;153391.31;;;-7.52;85.41
7940;BME280;4015;48.888;9.226;2022-12-18T00:16:38;153391.31;;;-7.52;85.82
7940;BME280;4015;48.888;9.226;2022-12-18T00:19:04;153382.47;;;-7.56;85.48
7940;BME280;4015;48.888;9.226;2022-12-18T00:21:31;153379.94;;;-7.57;85.03
7940;BME280;4015;48.888;9.226;2022-12-18T00:23:58;153357.28;;;-7.66;85.15
7940;BME280;4015;48.888;9.226;2022-12-18T00:26:29;153350.94;;;-7.69;84.91
7940;BME280;4015;48.888;9.226;2022-12-18T00:28:54;153374.91;;;-7.59;85.04
7940;BME280;4015;48.888;9.226;2022-12-18T00:31:24;153382.47;;;-7.56;85.10
7940;BME280;4015;48.888;9.226;2022-12-18T00:33:50;153366.06;;;-7.63;85.40
7940;BME280;4015;48.888;9.226;2022-12-18T00:36:18;153405.19;;;-7.47;85.27
7940;BME280;4015;48.888;9.226;2022-12-18T00:38:45;153384.97;;;-7.55;84.48
7940;BME280;4015;48.888;9.226;2022-12-18T00:41:12;153344.66;;;-7.71;84.21
7940;BME280;4015;48.888;9.226;2022-12-18T00:43:38;153309.41;;;-7.85;84.41
7940;BME280;4015;48.888;9.226;2022-12-18T00:46:04;153296.78;;;-7.91;83.75
7940;BME280;4015;48.888;9.226;2022-12-18T00:48:30;153306.84;;;-7.87;83.69
7940;BME280;4015;48.888;9.226;2022-12-18T00:50:55;153353.47;;;-7.68;84.26
7940;BME280;4015;48.888;9.226;2022-12-18T00:53:21;153349.69;;;-7.69;83.93
7940;BME280;4015;48.888;9.226;2022-12-18T00:55:46;153304.31;;;-7.88;83.64
7940;BME280;4015;48.888;9.226;2022-12-18T00:58:14;153316.94;;;-7.82;83.04
7940;BME280;4015;48.888;9.226;2022-12-18T01:00:39;153223.69;;;-8.20;86.35
7940;BME280;4015;48.888;9.226;2022-12-18T01:03:05;153232.53;;;-8.17;86.42
7940;BME280;4015;48.888;9.226;2022-12-18T01:05:31;153242.56;;;-8.12;85.50
7940;BME280;4015;48.888;9.226;2022-12-18T01:07:57;153240.06;;;-8.13;84.67
7940;BME280;4015;48.888;9.226;2022-12-18T01:10:23;153189.69;;;-8.34;86.55
7940;BME280;4015;48.888;9.226;2022-12-18T01:12:49;153148.16;;;-8.51;87.45
7940;BME280;4015;48.888;9.226;2022-12-18T01:15:15;153120.44;;;-8.62;87.86
7940;BME280;4015;48.888;9.226;2022-12-18T01:17:40;153126.75;;;-8.59;87.94
7940;BME280;4015;48.888;9.226;2022-12-18T01:20:07;153116.66;;;-8.63;88.66
7940;BME280;4015;48.888;9.226;2022-12-18T01:22:33;153131.78;;;-8.57;88.24
7940;BME280;4015;48.888;9.226;2022-12-18T01:24:59;153170.84;;;-8.41;87.40
7940;BME280;4015;48.888;9.226;2022-12-18T01:27:24;153177.13;;;-8.39;86.04
7940;BME280;4015;48.888;9.226;2022-12-18T01:29:51;153185.97;;;-8.35;85.91
7940;BME280;4015;48.888;9.226;2022-12-18T01:32:16;153163.28;;;-8.45;86.37
7940;BME280;4015;48.888;9.226;2022-12-18T01:34:41;153135.53;;;-8.56;88.02
7940;BME280;4015;48.888;9.226;2022-12-18T01:37:07;153162.00;;;-8.45;87.95
7940;BME280;4015;48.888;9.226;2022-12-18T01:39:33;153177.13;;;-8.39;87.28
7940;BME280;4015;48.888;9.226;2022-12-18T01:41:59;153141.88;;;-8.53;89.13
7940;BME280;4015;48.888;9.226;2022-12-18T01:47:39;153180.91;;;-8.37;87.28
7940;BME280;4015;48.888;9.226;2022-12-18T01:50:21;153123.00;;;-8.61;86.69
7940;BME280;4015;48.888;9.226;2022-12-18T01:52:50;153080.16;;;-8.78;87.55
7940;BME280;4015;48.888;9.226;2022-12-18T01:55:19;153107.88;;;-8.67;87.43
7940;BME280;4015;48.888;9.226;2022-12-18T01:57:44;153141.88;;;-8.53;87.61
7940;BME280;4015;48.888;9.226;2022-12-18T02:00:17;153164.53;;;-8.44;86.44
7940;BME280;4015;48.888;9.226;2022-12-18T02:02:44;153144.38;;;-8.52;85.29
7940;BME280;4015;48.888;9.226;2022-12-18T02:05:11;153148.16;;;-8.51;85.36
7940;BME280;4015;48.888;9.226;2022-12-18T02:10:38;153112.91;;;-8.65;86.00
7940;BME280;4015;48.888;9.226;2022-12-18T02:13:20;153128.00;;;-8.59;85.91
7940;BME280;4015;48.888;9.226;2022-12-18T02:16:02;153160.75;;;-8.46;85.52
7940;BME280;4015;48.888;9.226;2022-12-18T02:18:34;153201.03;;;-8.29;84.68
7940;BME280;4015;48.888;9.226;2022-12-18T02:21:12;153221.19;;;-8.21;84.91
7940;BME280;4015;48.888;9.226;2022-12-18T02:26:47;153201.03;;;-8.29;85.47
7940;BME280;4015;48.888;9.226;2022-12-18T02:29:44;153227.47;;;-8.19;85.88
7940;BME280;4015;48.888;9.226;2022-12-18T02:32:15;153236.28;;;-8.15;84.97
7940;BME280;4015;48.888;9.226;2022-12-18T02:34:43;153213.59;;;-8.24;84.57
7940;BME280;4015;48.888;9.226;2022-12-18T02:37:12;153183.41;;;-8.36;85.13
7940;BME280;4015;48.888;9.226;2022-12-18T02:39:40;153203.53;;;-8.28;84.77
7940;BME280;4015;48.888;9.226;2022-12-18T02:42:07;153203.53;;;-8.28;84.26
7940;BME280;4015;48.888;9.226;2022-12-18T02:44:34;153193.44;;;-8.32;84.38
7940;BME280;4015;48.888;9.226;2022-12-18T02:47:01;153226.19;;;-8.19;85.11
7940;BME280;4015;48.888;9.226;2022-12-18T02:52:18;153211.09;;;-8.25;85.85
7940;BME280;4015;48.888;9.226;2022-12-18T02:54:52;153238.81;;;-8.14;84.92
7940;BME280;4015;48.888;9.226;2022-12-18T02:57:29;153247.66;;;-8.10;84.38
7940;BME280;4015;48.888;9.226;2022-12-18T03:00:10;153240.06;;;-8.13;83.98
7940;BME280;4015;48.888;9.226;2022-12-18T03:02:47;153252.66;;;-8.08;84.32
7940;BME280;4015;48.888;9.226;2022-12-18T03:05:21;153260.22;;;-8.05;84.42
7940;BME280;4015;48.888;9.226;2022-12-18T03:07:56;153289.19;;;-7.94;83.99
7940;BME280;4015;48.888;9.226;2022-12-18T03:10:28;153281.66;;;-7.97;83.60
7940;BME280;4015;48.888;9.226;2022-12-18T03:13:01;153287.94;;;-7.94;83.19
7940;BME280;4015;48.888;9.226;2022-12-18T03:15:31;153299.28;;;-7.90;83.55
7940;BME280;4015;48.888;9.226;2022-12-18T03:18:02;153282.91;;;-7.96;83.21
7940;BME280;4015;48.888;9.226;2022-12-18T03:20:31;153218.66;;;-8.22;83.74
7940;BME280;4015;48.888;9.226;2022-12-18T03:23:04;153162.00;;;-8.45;84.07
7940;BME280;4015;48.888;9.226;2022-12-18T03:25:32;153158.25;;;-8.47;84.32
7940;BME280;4015;48.888;9.226;2022-12-18T03:28:01;153167.03;;;-8.43;83.80
7940;BME280;4015;48.888;9.226;2022-12-18T03:30:30;153092.75;;;-8.73;84.27
7940;BME280;4015;48.888;9.226;2022-12-18T03:33:16;153086.44;;;-8.76;84.22
7940;BME280;4015;48.888;9.226;2022-12-18T03:35:44;153095.28;;;-8.72;84.83
7940;BME280;4015;48.888;9.226;2022-12-18T03:38:11;153061.28;;;-8.86;84.95
7940;BME280;4015;48.888;9.226;2022-12-18T03:46:25;153013.41;;;-9.05;86.80
7940;BME280;4015;48.888;9.226;2022-12-18T03:48:59;153041.09;;;-8.94;85.84
7940;BME280;4015;48.888;9.226;2022-12-18T03:54:23;153091.47;;;-8.74;83.75
7940;BME280;4015;48.888;9.226;2022-12-18T03:56:56;153091.47;;;-8.74;82.83
7940;BME280;4015;48.888;9.226;2022-12-18T03:59:24;153054.97;;;-8.88;83.13
7940;BME280;4015;48.888;9.226;2022-12-18T04:01:52;153058.72;;;-8.87;82.84
7940;BME280;4015;48.888;9.226;2022-12-18T04:04:21;153072.59;;;-8.81;82.27
7940;BME280;4015;48.888;9.226;2022-12-18T04:06:47;153059.97;;;-8.86;81.70
7940;BME280;4015;48.888;9.226;2022-12-18T04:09:14;153061.28;;;-8.86;80.88
7940;BME280;4015;48.888;9.226;2022-12-18T04:11:41;153082.69;;;-8.77;80.77
7940;BME280;4015;48.888;9.226;2022-12-18T04:14:09;153061.28;;;-8.86;80.82
7940;BME280;4015;48.888;9.226;2022-12-18T04:16:34;153039.84;;;-8.94;81.82
7940;BME280;4015;48.888;9.226;2022-12-18T04:19:00;152992.03;;;-9.14;81.12
7940;BME280;4015;48.888;9.226;2022-12-18T04:21:25;153026.00;;;-9.00;81.26
7940;BME280;4015;48.888;9.226;2022-12-18T04:23:50;153054.97;;;-8.88;81.46
7940;BME280;4015;48.888;9.226;2022-12-18T04:26:16;153019.72;;;-9.03;81.61
7940;BME280;4015;48.888;9.226;2022-12-18T04:28:41;153015.97;;;-9.04;82.96
7940;BME280;4015;48.888;9.226;2022-12-18T04:31:06;153042.38;;;-8.93;82.18
7940;BME280;4015;48.888;9.226;2022-12-18T04:33:32;152992.03;;;-9.14;84.93
7940;BME280;4015;48.888;9.226;2022-12-18T04:35:57;153046.19;;;-8.92;83.18
7940;BME280;4015;48.888;9.226;2022-12-18T04:38:23;152964.31;;;-9.25;83.97
7940;BME280;4015;48.888;9.226;2022-12-18T04:40:48;152993.28;;;-9.13;84.53
7940;BME280;4015;48.888;9.226;2022-12-18T04:43:13;153042.38;;;-8.93;83.51
7940;BME280;4015;48.888;9.226;2022-12-18T04:45:39;153088.94;;;-8.75;83.00
7940;BME280;4015;48.888;9.226;2022-12-18T04:48:04;153052.47;;;-8.89;84.39
7940;BME280;4015;48.888;9.226;2022-12-18T04:50:30;153068.81;;;-8.83;84.09
7940;BME280;4015;48.888;9.226;2022-12-18T04:52:56;153105.31;;;-8.68;84.25
7940;BME280;4015;48.888;9.226;2022-12-18T04:55:21;153126.75;;;-8.59;83.86
7940;BME280;4015;48.888;9.226;2022-12-18T04:57:46;153146.91;;;-8.51;83.22
7940;BME280;4015;48.888;9.226;2022-12-18T05:00:12;153124.25;;;-8.60;83.05
7940;BME280;4015;48.888;9.226;2022-12-18T05:02:38;153120.44;;;-8.62;82.46
7940;BME280;4015;48.888;9.226;2022-12-18T05:05:04;153143.13;;;-8.53;82.49
7940;BME280;4015;48.888;9.226;2022-12-18T05:07:29;153125.50;;;-8.60;81.62
7940;BME280;4015;48.888;9.226;2022-12-18T05:09:54;153133.03;;;-8.57;81.30
7940;BME280;4015;48.888;9.226;2022-12-18T05:12:20;153112.91;;;-8.65;81.26
7940;BME280;4015;48.888;9.226;2022-12-18T05:14:48;153097.78;;;-8.71;81.12
7940;BME280;4015;48.888;9.226;2022-12-18T05:17:13;153077.66;;;-8.79;80.40
7940;BME280;4015;48.888;9.226;2022-12-18T05:19:38;153077.66;;;-8.79;80.30
7940;BME280;4015;48.888;9.226;2022-12-18T05:22:07;153071.34;;;-8.82;80.81
7940;BME280;4015;48.888;9.226;2022-12-18T05:24:32;153072.59;;;-8.81;80.58
7940;BME280;4015;48.888;9.226;2022-12-18T05:26:58;153047.44;;;-8.91;81.23
7940;BME280;4015;48.888;9.226;2022-12-18T05:29:23;153022.22;;;-9.02;79.99
7940;BME280;4015;48.888;9.226;2022-12-18T05:31:48;152961.81;;;-9.26;80.19
7940;BME280;4015;48.888;9.226;2022-12-18T05:34:14;152980.69;;;-9.18;81.05
7940;BME280;4015;48.888;9.226;2022-12-18T05:36:40;153024.75;;;-9.01;80.63
7940;BME280;4015;48.888;9.226;2022-12-18T05:39:05;153046.19;;;-8.92;80.80
7940;BME280;4015;48.888;9.226;2022-12-18T05:41:31;153044.88;;;-8.92;81.63
7940;BME280;4015;48.888;9.226;2022-12-18T05:43:56;153077.66;;;-8.79;81.20
7940;BME280;4015;48.888;9.226;2022-12-18T05:46:21;153048.69;;;-8.91;81.03
7940;BME280;4015;48.888;9.226;2022-12-18T05:48:47;153085.19;;;-8.76;81.56
7940;BME280;4015;48.888;9.226;2022-12-18T05:51:15;153092.75;;;-8.73;81.07
7940;BME280;4015;48.888;9.226;2022-12-18T05:53:42;153057.47;;;-8.87;81.16
7940;BME280;4015;48.888;9.226;2022-12-18T05:56:12;153066.31;;;-8.84;81.33
7940;BME280;4015;48.888;9.226;2022-12-18T05:58:37;153049.94;;;-8.90;80.89
7940;BME280;4015;48.888;9.226;2022-12-18T06:01:17;153041.09;;;-8.94;81.43
7940;BME280;4015;48.888;9.226;2022-12-18T06:03:43;153056.22;;;-8.88;81.59
7940;BME280;4015;48.888;9.226;2022-12-18T06:06:22;153067.56;;;-8.83;81.28
7940;BME280;4015;48.888;9.226;2022-12-18T06:08:49;153062.53;;;-8.85;80.96
7940;BME280;4015;48.888;9.226;2022-12-18T06:11:20;153039.84;;;-8.94;80.60
7940;BME280;4015;48.888;9.226;2022-12-18T06:13:50;153026.00;;;-9.00;80.64
7940;BME280;4015;48.888;9.226;2022-12-18T06:16:16;153033.56;;;-8.97;80.28
7940;BME280;4015;48.888;9.226;2022-12-18T06:18:41;153056.22;;;-8.88;80.50
7940;BME280;4015;48.888;9.226;2022-12-18T06:21:06;153044.88;;;-8.92;80.93
7940;BME280;4015;48.888;9.226;2022-12-18T06:23:32;153038.59;;;-8.95;80.75
7940;BME280;4015;48.888;9.226;2022-12-18T06:25:57;153020.97;;;-9.02;79.86
7940;BME280;4015;48.888;9.226;2022-12-18T06:28:23;153007.13;;;-9.08;80.14
7940;BME280;4015;48.888;9.226;2022-12-18T06:30:48;153031.06;;;-8.98;80.28
7940;BME280;4015;48.888;9.226;2022-12-18T06:33:15;153013.41;;;-9.05;80.74
7940;BME280;4015;48.888;9.226;2022-12-18T06:35:41;153010.88;;;-9.06;80.68
7940;BME280;4015;48.888;9.226;2022-12-18T06:38:06;152974.41;;;-9.21;79.73
7940;BME280;4015;48.888;9.226;2022-12-18T06:40:32;152924.06;;;-9.41;80.36
7940;BME280;4015;48.888;9.226;2022-12-18T06:42:57;152947.97;;;-9.32;80.71
7940;BME280;4015;48.888;9.226;2022-12-18T06:45:23;152980.69;;;-9.18;80.55
7940;BME280;4015;48.888;9.226;2022-12-18T06:47:49;152942.94;;;-9.34;80.23
7940;BME280;4015;48.888;9.226;2022-12-18T06:50:14;152905.16;;;-9.49;79.75
7940;BME280;4015;48.888;9.226;2022-12-18T06:52:40;152959.28;;;-9.27;79.87
7940;BME280;4015;48.888;9.226;2022-12-18T06:55:08;152973.16;;;-9.21;79.67
7940;BME280;4015;48.888;9.226;2022-12-18T06:57:33;152983.22;;;-9.17;80.54
7940;BME280;4015;48.888;9.226;2022-12-18T07:00:02;152988.25;;;-9.15;80.11
7940;BME280;4015;48.888;9.226;2022-12-18T07:02:28;152999.59;;;-9.11;80.71
7940;BME280;4015;48.888;9.226;2022-12-18T07:04:53;152975.66;;;-9.20;81.63
7940;BME280;4015;48.888;9.226;2022-12-18T07:07:18;152987.00;;;-9.16;80.89
7940;BME280;4015;48.888;9.226;2022-12-18T07:09:44;152965.56;;;-9.25;80.47
7940;BME280;4015;48.888;9.226;2022-12-18T07:12:09;152976.91;;;-9.20;80.28
7940;BME280;4015;48.888;9.226;2022-12-18T07:14:34;152970.63;;;-9.22;81.79
7940;BME280;4015;48.888;9.226;2022-12-18T07:17:00;152987.00;;;-9.16;81.17
7940;BME280;4015;48.888;9.226;2022-12-18T07:19:25;152993.28;;;-9.13;80.54
7940;BME280;4015;48.888;9.226;2022-12-18T07:21:51;153009.63;;;-9.07;81.59
7940;BME280;4015;48.888;9.226;2022-12-18T07:24:17;153038.59;;;-8.95;81.45
7940;BME280;4015;48.888;9.226;2022-12-18T07:26:42;153047.44;;;-8.91;80.89
7940;BME280;4015;48.888;9.226;2022-12-18T07:29:10;153059.97;;;-8.86;80.97
7940;BME280;4015;48.888;9.226;2022-12-18T07:31:35;153088.94;;;-8.75;81.16
7940;BME280;4015;48.888;9.226;2022-12-18T07:34:00;153114.16;;;-8.64;81.07
7940;BME280;4015;48.888;9.226;2022-12-18T07:36:26;153116.66;;;-8.63;80.87
7940;BME280;4015;48.888;9.226;2022-12-18T07:38:51;153116.66;;;-8.63;80.09
7940;BME280;4015;48.888;9.226;2022-12-18T07:41:18;153124.25;;;-8.60;79.97
7940;BME280;4015;48.888;9.226;2022-12-18T07:43:44;153154.47;;;-8.48;79.96
7940;BME280;4015;48.888;9.226;2022-12-18T07:46:10;153149.41;;;-8.50;80.72
7940;BME280;4015;48.888;9.226;2022-12-18T07:48:36;153170.84;;;-8.41;81.39
7940;BME280;4015;48.888;9.226;2022-12-18T07:51:03;153207.31;;;-8.27;81.60
7940;BME280;4015;48.888;9.226;2022-12-18T07:53:29;153265.28;;;-8.03;80.14
7940;BME280;4015;48.888;9.226;2022-12-18T07:55:59;153209.81;;;-8.26;79.89
7940;BME280;4015;48.888;9.226;2022-12-18T07:58:25;153226.19;;;-8.19;79.88
7940;BME280;4015;48.888;9.226;2022-12-18T08:00:51;153255.19;;;-8.07;79.76
7940;BME280;4015;48.888;9.226;2022-12-18T08:03:17;153189.69;;;-8.34;80.74
7940;BME280;4015;48.888;9.226;2022-12-18T08:05:42;153270.31;;;-8.01;79.57
7940;BME280;4015;48.888;9.226;2022-12-18T08:08:08;153287.94;;;-7.94;78.79
7940;BME280;4015;48.888;9.226;2022-12-18T08:10:33;153299.28;;;-7.90;78.43
7940;BME280;4015;48.888;9.226;2022-12-18T08:12:58;153306.84;;;-7.87;78.09
7940;BME280;4015;48.888;9.226;2022-12-18T08:15:23;153252.66;;;-8.08;79.24
7940;BME280;4015;48.888;9.226;2022-12-18T08:17:49;153310.66;;;-7.85;79.63
7940;BME280;4015;48.888;9.226;2022-12-18T08:20:14;153354.72;;;-7.67;78.94
7940;BME280;4015;48.888;9.226;2022-12-18T08:22:43;153350.94;;;-7.69;79.27
7940;BME280;4015;48.888;9.226;2022-12-18T08:25:09;153429.09;;;-7.37;78.36
7940;BME280;4015;48.888;9.226;2022-12-18T08:27:34;153391.31;;;-7.52;78.72
7940;BME280;4015;48.888;9.226;2022-12-18T08:30:00;153387.53;;;-7.54;79.04
7940;BME280;4015;48.888;9.226;2022-12-18T08:32:26;153504.75;;;-7.07;78.56
7940;BME280;4015;48.888;9.226;2022-12-18T08:34:52;153463.13;;;-7.23;78.82
7940;BME280;4015;48.888;9.226;2022-12-18T08:37:17;153514.84;;;-7.02;78.62
7940;BME280;4015;48.888;9.226;2022-12-18T08:39:43;153590.53;;;-6.72;77.91
7940;BME280;4015;48.888;9.226;2022-12-18T08:42:09;153653.63;;;-6.46;77.34
7940;BME280;4015;48.888;9.226;2022-12-18T08:44:53;153585.47;;;-6.74;78.28
7940;BME280;4015;48.888;9.226;2022-12-18T08:47:18;153611.97;;;-6.63;78.14
7940;BME280;4015;48.888;9.226;2022-12-18T08:49:44;153657.38;;;-6.45;78.48
7940;BME280;4015;48.888;9.226;2022-12-18T08:52:09;153699.03;;;-6.28;77.72
7940;BME280;4015;48.888;9.226;2022-12-18T08:54:34;153664.94;;;-6.42;77.94
7940;BME280;4015;48.888;9.226;2022-12-18T08:57:00;153681.34;;;-6.35;78.45
7940;BME280;4015;48.888;9.226;2022-12-18T08:59:28;153696.47;;;-6.29;78.28
7940;BME280;4015;48.888;9.226;2022-12-18T09:01:54;153787.34;;;-5.92;77.48
7940;BME280;4015;48.888;9.226;2022-12-18T09:04:20;153845.38;;;-5.69;76.90
7940;BME280;4015;48.888;9.226;2022-12-18T09:06:45;153770.94;;;-5.99;77.46
7940;BME280;4015;48.888;9.226;2022-12-18T09:09:10;153791.13;;;-5.91;78.57
7940;BME280;4015;48.888;9.226;2022-12-18T09:11:36;153846.63;;;-5.68;77.54
7940;BME280;4015;48.888;9.226;2022-12-18T09:14:01;153916.09;;;-5.40;77.00
7940;BME280;4015;48.888;9.226;2022-12-18T09:16:28;153855.50;;;-5.65;77.39
7940;BME280;4015;48.888;9.226;2022-12-18T09:18:55;153921.13;;;-5.38;76.94
7940;BME280;4015;48.888;9.226;2022-12-18T09:21:25;154014.59;;;-5.01;76.07
7940;BME280;4015;48.888;9.226;2022-12-18T09:23:52;153961.50;;;-5.22;75.65
7940;BME280;4015;48.888;9.226;2022-12-18T09:26:18;153991.81;;;-5.10;75.50
7940;BME280;4015;48.888;9.226;2022-12-18T09:28:44;154092.91;;;-4.69;74.72
7940;BME280;4015;48.888;9.226;2022-12-18T09:31:11;154177.53;;;-4.35;74.21
7940;BME280;4015;48.888;9.226;2022-12-18T09:33:37;154391.22;;;-3.49;73.78
7940;BME280;4015;48.888;9.226;2022-12-18T09:36:04;154499.97;;;-3.05;71.88
7940;BME280;4015;48.888;9.226;2022-12-18T09:38:29;154555.66;;;-2.83;70.43
7940;BME280;4015;48.888;9.226;2022-12-18T09:44:15;154616.38;;;-2.58;68.00
7940;BME280;4015;48.888;9.226;2022-12-18T09:49:30;154792.34;;;-1.87;67.28
7940;BME280;4015;48.888;9.226;2022-12-18T09:52:02;154810.06;;;-1.80;66.49
7940;BME280;4015;48.888;9.226;2022-12-18T09:54:38;155107.78;;;-0.61;65.08
7940;BME280;4015;48.888;9.226;2022-12-18T09:57:23;155157.22;;;-0.41;62.84
7940;BME280;4015;48.888;9.226;2022-12-18T09:59:56;155405.75;;;0.59;61.86
7940;BME280;4015;48.888;9.226;2022-12-18T10:02:25;155313.16;;;0.22;60.13
7940;BME280;4015;48.888;9.226;2022-12-18T10:05:12;155360.09;;;0.41;60.47
7940;BME280;4015;48.888;9.226;2022-12-18T10:13:02;155867.81;;;2.44;55.78
7940;BME280;4015;48.888;9.226;2022-12-18T10:15:43;155492.00;;;0.94;58.88
7940;BME280;4015;48.888;9.226;2022-12-18T10:18:16;155380.38;;;0.49;60.74
7940;BME280;4015;48.888;9.226;2022-12-18T10:20:49;155209.16;;;-0.20;63.18
7940;BME280;4015;48.888;9.226;2022-12-18T10:23:28;155155.94;;;-0.41;64.15
7940;BME280;4015;48.888;9.226;2022-12-18T10:28:24;154715.13;;;-2.19;71.35
7940;BME280;4015;48.888;9.226;2022-12-18T10:30:50;154737.88;;;-2.09;72.14
7940;BME280;4015;48.888;9.226;2022-12-18T10:33:21;154715.13;;;-2.19;71.62
7940;BME280;4015;48.888;9.226;2022-12-18T10:35:49;154851.84;;;-1.64;72.23
7940;BME280;4015;48.888;9.226;2022-12-18T10:44:20;155850.03;;;2.37;60.34
7940;BME280;4015;48.888;9.226;2022-12-18T10:46:47;156029.19;;;3.09;58.80
7940;BME280;4015;48.888;9.226;2022-12-18T10:49:29;155895.75;;;2.56;58.99
7940;BME280;4015;48.888;9.226;2022-12-18T10:54:31;155940.22;;;2.74;59.42
7940;BME280;4015;48.888;9.226;2022-12-18T10:57:37;155893.22;;;2.55;59.69
7940;BME280;4015;48.888;9.226;2022-12-18T11:00:28;156019.00;;;3.05;58.56
7940;BME280;4015;48.888;9.226;2022-12-18T11:02:54;156265.66;;;4.04;57.56
7940;BME280;4015;48.888;9.226;2022-12-18T11:07:54;156306.31;;;4.20;57.06
7940;BME280;4015;48.888;9.226;2022-12-18T11:10:22;156364.84;;;4.44;56.59
7940;BME280;4015;48.888;9.226;2022-12-18T11:12:47;156232.59;;;3.91;56.91
7940;BME280;4015;48.888;9.226;2022-12-18T11:15:37;156034.25;;;3.11;59.48
7940;BME280;4015;48.888;9.226;2022-12-18T11:18:18;156185.56;;;3.72;61.97
7940;BME280;4015;48.888;9.226;2022-12-18T11:20:51;156122.00;;;3.46;59.56
7940;BME280;4015;48.888;9.226;2022-12-18T11:23:19;156115.59;;;3.44;60.43
7940;BME280;4015;48.888;9.226;2022-12-18T11:25:58;156067.31;;;3.24;61.29
7940;BME280;4015;48.888;9.226;2022-12-18T11:28:40;155942.75;;;2.75;61.82
7940;BME280;4015;48.888;9.226;2022-12-18T11:31:22;155808.13;;;2.21;62.11
7940;BME280;4015;48.888;9.226;2022-12-18T11:36:20;155818.28;;;2.25;62.34
7940;BME280;4015;48.888;9.226;2022-12-18T11:38:48;155888.16;;;2.53;64.59
7940;BME280;4015;48.888;9.226;2022-12-18T11:44:40;155641.78;;;1.54;66.91
7940;BME280;4015;48.888;9.226;2022-12-18T11:47:18;155596.09;;;1.35;65.32
7940;BME280;4015;48.888;9.226;2022-12-18T11:49:49;155690.03;;;1.73;66.44
7940;BME280;4015;48.888;9.226;2022-12-18T11:52:35;155776.41;;;2.08;65.38
7940;BME280;4015;48.888;9.226;2022-12-18T11:55:19;155676.06;;;1.68;64.61
7940;BME280;4015;48.888;9.226;2022-12-18T11:57:55;155596.09;;;1.35;67.19
7940;BME280;4015;48.888;9.226;2022-12-18T12:00:24;155580.84;;;1.29;65.59
7940;BME280;4015;48.888;9.226;2022-12-18T12:05:27;155561.81;;;1.22;68.29
7940;BME280;4015;48.888;9.226;2022-12-18T12:18:25;155611.31;;;1.42;67.53
7940;BME280;4015;48.888;9.226;2022-12-18T12:21:13;155639.25;;;1.53;66.56
7940;BME280;4015;48.888;9.226;2022-12-18T12:26:26;155603.72;;;1.39;67.39
7940;BME280;4015;48.888;9.226;2022-12-18T12:29:22;155568.16;;;1.24;67.22
7940;BME280;4015;48.888;9.226;2022-12-18T12:32:36;155583.38;;;1.30;66.59
7940;BME280;4015;48.888;9.226;2022-12-18T12:35:10;155607.53;;;1.40;66.59
7940;BME280;4015;48.888;9.226;2022-12-18T12:37:49;155638.00;;;1.52;67.68
7940;BME280;4015;48.888;9.226;2022-12-18T12:40:19;155695.09;;;1.75;66.48
7940;BME280;4015;48.888;9.226;2022-12-18T12:42:58;155720.50;;;1.85;66.86
7940;BME280;4015;48.888;9.226;2022-12-18T12:48:24;155775.06;;;2.07;67.10
7940;BME280;4015;48.888;9.226;2022-12-18T12:50:53;155698.94;;;1.77;67.10
7940;BME280;4015;48.888;9.226;2022-12-18T12:53:25;155681.13;;;1.70;67.82
7940;BME280;4015;48.888;9.226;2022-12-18T12:55:52;155663.34;;;1.62;68.21
7940;BME280;4015;48.888;9.226;2022-12-18T12:58:36;155700.19;;;1.77;69.16
7940;BME280;4015;48.888;9.226;2022-12-18T13:01:10;155635.47;;;1.51;69.98
7940;BME280;4015;48.888;9.226;2022-12-18T13:06:42;155659.56;;;1.61;68.04
7940;BME280;4015;48.888;9.226;2022-12-18T13:09:09;155624.03;;;1.47;68.94
7940;BME280;4015;48.888;9.226;2022-12-18T13:11:40;155626.53;;;1.48;69.75
7940;BME280;4015;48.888;9.226;2022-12-18T13:19:44;155664.63;;;1.63;68.98
7940;BME280;4015;48.888;9.226;2022-12-18T13:22:24;155690.03;;;1.73;67.24
7940;BME280;4015;48.888;9.226;2022-12-18T13:24:50;155706.53;;;1.80;67.28
7940;BME280;4015;48.888;9.226;2022-12-18T13:38:43;155709.06;;;1.81;67.89
7940;BME280;4015;48.888;9.226;2022-12-18T13:43:45;155646.84;;;1.56;67.94
7940;BME280;4015;48.888;9.226;2022-12-18T13:46:28;155608.78;;;1.41;69.78
7940;BME280;4015;48.888;9.226;2022-12-18T13:51:46;155560.56;;;1.21;69.31
7940;BME280;4015;48.888;9.226;2022-12-18T13:54:19;155518.66;;;1.04;70.18
7940;BME280;4015;48.888;9.226;2022-12-18T13:56:47;155494.59;;;0.95;70.17
7940;BME280;4015;48.888;9.226;2022-12-18T14:01:48;155568.16;;;1.24;70.63
7940;BME280;4015;48.888;9.226;2022-12-18T14:04:30;155621.50;;;1.46;69.17
7940;BME280;4015;48.888;9.226;2022-12-18T14:07:01;155554.19;;;1.19;69.83
7940;BME280;4015;48.888;9.226;2022-12-18T14:09:31;155478.09;;;0.88;70.52
7940;BME280;4015;48.888;9.226;2022-12-18T14:12:00;155431.16;;;0.69;71.38
7940;BME280;4015;48.888;9.226;2022-12-18T14:14:46;155465.38;;;0.83;70.96
7940;BME280;4015;48.888;9.226;2022-12-18T14:17:13;155455.22;;;0.79;71.36
7940;BME280;4015;48.888;9.226;2022-12-18T14:19:44;155466.66;;;0.84;70.78
7940;BME280;4015;48.888;9.226;2022-12-18T14:22:21;155403.22;;;0.58;71.67
7940;BME280;4015;48.888;9.226;2022-12-18T14:27:43;155275.13;;;0.07;75.25
7940;BME280;4015;48.888;9.226;2022-12-18T14:36:04;155220.59;;;-0.15;76.44
7940;BME280;4015;48.888;9.226;2022-12-18T14:38:37;155216.78;;;-0.17;76.77
7940;BME280;4015;48.888;9.226;2022-12-18T14:41:13;155191.44;;;-0.27;76.34
7940;BME280;4015;48.888;9.226;2022-12-18T14:43:41;155201.59;;;-0.23;75.96
7940;BME280;4015;48.888;9.226;2022-12-18T14:46:32;155123.00;;;-0.55;77.06
7940;BME280;4015;48.888;9.226;2022-12-18T14:49:04;155091.31;;;-0.67;77.59
7940;BME280;4015;48.888;9.226;2022-12-18T14:51:33;155091.31;;;-0.67;77.71
7940;BME280;4015;48.888;9.226;2022-12-18T14:54:04;155064.69;;;-0.78;76.12
7940;BME280;4015;48.888;9.226;2022-12-18T14:56:35;154987.38;;;-1.09;76.57
7940;BME280;4015;48.888;9.226;2022-12-18T14:59:06;154916.47;;;-1.38;76.45
7940;BME280;4015;48.888;9.226;2022-12-18T15:01:44;154908.84;;;-1.41;76.30
7940;BME280;4015;48.888;9.226;2022-12-18T15:04:25;154815.13;;;-1.78;77.61
7940;BME280;4015;48.888;9.226;2022-12-18T15:07:03;154825.28;;;-1.74;78.04
7940;BME280;4015;48.888;9.226;2022-12-18T15:09:29;154851.84;;;-1.64;77.73
7940;BME280;4015;48.888;9.226;2022-12-18T15:11:59;154770.78;;;-1.96;78.78